Time;durP1;ratioP1;P1;durP2;ratioP2;P2;SDS_P1;SDS_P2;PMS_P1;PMS_P2;Temp;Humidity;BMP_temperature;BMP_pressure;BME280_temperature;BME280_humidity;BME280_pressure;Samples;Min_cycle;Max_cycle;Signal;HPM_P1;HPM_P2
2022/05/06 00:00:27;;;;;;;10.50;6.47;;;;;;;17.16;57.81;100240.69;4443045;32;33642;-88
2022/05/06 00:03:18;;;;;;;7.95;6.20;;;;;;;17.23;57.79;100233.09;4442156;32;33579;-87
2022/05/06 00:06:08;;;;;;;9.93;6.30;;;;;;;17.20;57.72;100239.12;4442274;32;34414;-94
2022/05/06 00:08:59;;;;;;;11.82;6.35;;;;;;;17.26;57.44;100238.16;4440103;32;32963;-88
2022/05/06 00:11:51;;;;;;;7.57;5.78;;;;;;;17.30;57.65;100233.00;4440959;32;31728;-88
2022/05/06 00:14:45;;;;;;;9.40;5.87;;;;;;;17.34;57.29;100225.88;4442481;32;35036;-78
2022/05/06 00:17:35;;;;;;;8.32;5.50;;;;;;;17.31;57.28;100226.34;4442071;32;35011;-87
2022/05/06 00:20:27;;;;;;;8.90;5.90;;;;;;;17.34;57.09;100226.72;4442197;32;34922;-84
2022/05/06 00:23:21;;;;;;;9.77;6.18;;;;;;;17.21;57.54;100215.84;4429541;32;31957;-87
2022/05/06 00:26:15;;;;;;;11.12;5.85;;;;;;;17.30;57.29;100222.72;4440671;32;32336;-87
2022/05/06 00:29:06;;;;;;;9.50;6.50;;;;;;;17.33;57.25;100233.34;4441157;32;34363;-86
2022/05/06 00:32:00;;;;;;;7.35;5.40;;;;;;;17.23;57.65;100229.47;4429390;32;32423;-87
2022/05/06 00:34:53;;;;;;;9.48;5.60;;;;;;;17.24;57.60;100228.41;4441777;32;33267;-86
2022/05/06 00:37:45;;;;;;;10.32;5.90;;;;;;;17.22;57.66;100225.00;4440789;32;32845;-85
2022/05/06 00:40:36;;;;;;;10.15;5.95;;;;;;;17.26;57.69;100232.63;4441029;32;34530;-87
2022/05/06 00:43:24;;;;;;;8.90;5.82;;;;;;;17.18;58.12;100226.56;4442309;32;34727;-87
2022/05/06 00:46:29;;;;;;;9.13;5.97;;;;;;;17.31;57.70;100224.44;4428193;32;32132;-87
2022/05/06 00:49:19;;;;;;;8.70;6.12;;;;;;;17.25;58.09;100221.75;4442007;32;33883;-86
2022/05/06 00:52:16;;;;;;;9.15;6.18;;;;;;;17.13;58.57;100225.38;4441396;32;34550;-87
2022/05/06 00:55:11;;;;;;;9.32;5.97;;;;;;;17.03;59.05;100232.56;4429534;32;34008;-84
2022/05/06 00:58:07;;;;;;;8.63;6.50;;;;;;;17.15;58.71;100235.38;4441135;32;33749;-84
2022/05/06 01:00:59;;;;;;;10.93;5.93;;;;;;;17.13;58.79;100230.91;4442581;32;33938;-85
2022/05/06 01:03:49;;;;;;;8.55;5.78;;;;;;;17.20;58.75;100241.91;4428838;32;32964;-85
2022/05/06 01:06:38;;;;;;;8.55;6.28;;;;;;;17.19;58.84;100244.91;4440718;32;32670;-85
2022/05/06 01:09:32;;;;;;;9.67;6.23;;;;;;;17.13;59.04;100247.56;4441454;32;33391;-86
2022/05/06 01:12:23;;;;;;;8.32;6.30;;;;;;;17.10;59.26;100247.19;4453817;32;34456;-85
2022/05/06 01:15:36;;;;;;;10.07;6.70;;;;;;;17.14;59.03;100251.16;4442711;32;35415;-86
2022/05/06 01:18:20;;;;;;;;;;;;;;;17.26;58.34;100251.19;4442243;32;34686;-87
2022/05/06 01:21:15;;;;;;;8.35;6.15;;;;;;;17.26;58.33;100243.72;4442256;32;34220;-87
2022/05/06 01:24:09;;;;;;;8.05;6.05;;;;;;;17.19;58.51;100242.97;4440437;32;32539;-87
2022/05/06 01:27:10;;;;;;;10.50;5.85;;;;;;;17.16;58.62;100232.38;4453516;32;35169;-84
2022/05/06 01:29:59;;;;;;;10.10;6.50;;;;;;;17.27;58.37;100233.47;4441577;32;34976;-87
2022/05/06 01:32:45;;;;;;;7.85;6.15;;;;;;;17.20;58.36;100239.12;4441865;32;33219;-86
2022/05/06 01:35:30;;;;;;;9.52;6.03;;;;;;;17.24;58.24;100243.13;4428168;32;32365;-87
2022/05/06 01:38:21;;;;;;;9.82;6.53;;;;;;;17.21;57.94;100243.59;4428480;32;35181;-85
2022/05/06 01:41:35;;;;;;;10.02;6.25;;;;;;;17.11;58.45;100240.56;4429264;32;32465;-86
2022/05/06 01:44:28;;;;;;;9.35;6.15;;;;;;;17.11;58.30;100240.56;4440421;32;33557;-86
2022/05/06 01:47:27;;;;;;;7.30;5.75;;;;;;;17.12;58.42;100236.69;4452964;32;33828;-86
2022/05/06 01:50:17;;;;;;;9.38;6.28;;;;;;;17.14;58.33;100237.31;4428914;32;34030;-86
2022/05/06 01:53:06;;;;;;;11.98;6.85;;;;;;;16.95;58.97;100230.16;4440339;32;34255;-85
2022/05/06 01:56:03;;;;;;;10.32;6.60;;;;;;;17.10;58.58;100230.53;4442083;32;33531;-87
2022/05/06 01:58:58;;;;;;;9.20;7.05;;;;;;;17.22;58.02;100231.41;4440432;32;34006;-88
2022/05/06 02:01:55;;;;;;;9.02;6.93;;;;;;;17.01;58.26;100229.19;4440482;32;34350;-86
2022/05/06 02:07:50;;;;;;;12.65;7.12;;;;;;;17.17;56.79;100225.72;4429337;32;32964;-87
2022/05/06 02:10:39;;;;;;;10.35;6.85;;;;;;;17.22;56.54;100225.88;4441057;32;34517;-87
2022/05/06 02:13:30;;;;;;;10.10;6.50;;;;;;;17.28;56.43;100216.59;4440352;32;33036;-87
2022/05/06 02:16:23;;;;;;;10.57;7.20;;;;;;;17.29;56.40;100221.03;4429275;32;32707;-87
2022/05/06 02:19:13;;;;;;;8.95;7.18;;;;;;;17.27;56.36;100216.81;4454026;32;33937;-86
2022/05/06 02:22:01;;;;;;;11.10;7.15;;;;;;;17.32;56.03;100233.59;4441450;32;33870;-87
2022/05/06 02:24:55;;;;;;;10.50;7.20;;;;;;;17.40;55.72;100225.75;4439865;32;33152;-87
2022/05/06 02:27:50;;;;;;;9.05;6.70;;;;;;;17.40;55.72;100230.47;4429139;32;32520;-85
2022/05/06 02:33:44;;;;;;;9.70;7.03;;;;;;;17.43;54.89;100225.28;4442358;32;34798;-86
2022/05/06 02:36:33;;;;;;;8.88;6.20;;;;;;;17.36;55.24;100215.38;4426908;32;32943;-87
2022/05/06 02:39:25;;;;;;;9.05;6.80;;;;;;;17.37;55.00;100228.16;4428021;32;32465;-88
2022/05/06 02:42:14;;;;;;;9.43;6.45;;;;;;;17.39;55.16;100229.63;4440429;32;32752;-85
2022/05/06 02:45:08;;;;;;;11.45;6.40;;;;;;;17.71;54.14;100230.13;4439421;32;32538;-85
2022/05/06 02:47:57;;;;;;;11.20;6.53;;;;;;;17.59;54.43;100232.00;4440040;32;35485;-88
2022/05/06 02:50:47;;;;;;;7.95;6.00;;;;;;;17.60;54.65;100238.41;4440405;32;34256;-86
2022/05/06 02:53:41;;;;;;;8.82;6.55;;;;;;;17.70;54.11;100239.53;4442499;32;32421;-86
2022/05/06 02:56:33;;;;;;;9.13;6.50;;;;;;;17.50;54.57;100232.66;4443381;32;32675;-86
2022/05/06 02:59:26;;;;;;;8.38;5.87;;;;;;;17.56;54.15;100232.50;4457248;32;33387;-86
2022/05/06 03:02:22;;;;;;;8.60;5.70;;;;;;;17.69;53.96;100225.88;4444570;32;32787;-86
2022/05/06 03:05:07;;;;;;;;;;;;;;;17.55;54.45;100224.44;4447330;32;33153;-85
2022/05/06 03:07:58;;;;;;;8.50;5.75;;;;;;;17.66;54.18;100221.66;4457723;32;34074;-88
2022/05/06 03:10:54;;;;;;;8.75;6.25;;;;;;;17.54;55.06;100219.97;4433534;32;32982;-86
2022/05/06 03:13:45;;;;;;;7.62;5.62;;;;;;;17.51;54.95;100223.22;4432605;32;32695;-86
2022/05/06 03:16:34;;;;;;;7.32;5.75;;;;;;;17.73;54.13;100214.06;4457060;32;31898;-86
2022/05/06 03:19:29;;;;;;;9.25;5.82;;;;;;;17.70;53.83;100224.81;4444043;32;32333;-87
2022/05/06 03:22:21;;;;;;;8.60;6.20;;;;;;;17.76;53.13;100227.44;4445979;32;34437;-86
2022/05/06 03:25:15;;;;;;;9.35;5.87;;;;;;;17.57;53.93;100227.78;4458282;32;34187;-85
2022/05/06 03:28:07;;;;;;;9.18;5.85;;;;;;;17.57;54.32;100230.56;4444926;32;32248;-86
2022/05/06 03:31:00;;;;;;;10.20;5.87;;;;;;;17.62;54.46;100231.53;4441014;32;32049;-87
2022/05/06 03:33:52;;;;;;;8.20;6.03;;;;;;;17.52;54.69;100234.09;4442461;32;35357;-85
2022/05/06 03:36:44;;;;;;;10.00;5.82;;;;;;;17.49;54.93;100230.94;4442550;32;32193;-86
2022/05/06 03:39:38;;;;;;;9.43;5.45;;;;;;;17.41;54.79;100238.56;4454005;32;33415;-87
2022/05/06 03:42:29;;;;;;;8.70;6.12;;;;;;;17.62;54.29;100239.00;4454504;32;33895;-87
2022/05/06 03:45:21;;;;;;;10.45;6.00;;;;;;;17.44;54.99;100240.00;4442478;32;33724;-87
2022/05/06 03:48:09;;;;;;;10.10;6.25;;;;;;;17.42;54.82;100225.53;4454267;32;33959;-87
2022/05/06 03:54:07;;;;;;;11.57;6.18;;;;;;;17.43;54.75;100230.81;4454408;32;33807;-85
2022/05/06 03:56:55;;;;;;;7.97;5.85;;;;;;;17.52;54.68;100231.31;4454291;32;34304;-86
2022/05/06 03:59:44;;;;;;;9.27;6.22;;;;;;;17.44;54.52;100240.00;4440559;32;33418;-86
2022/05/06 04:02:36;;;;;;;9.10;6.32;;;;;;;17.61;54.18;100240.94;4454666;32;34090;-86
2022/05/06 04:05:28;;;;;;;8.77;5.72;;;;;;;17.57;53.88;100238.88;4441160;32;32153;-87
2022/05/06 04:08:23;;;;;;;8.82;6.10;;;;;;;17.74;53.24;100239.88;4430077;32;33022;-86
2022/05/06 04:11:17;;;;;;;8.05;5.45;;;;;;;17.86;53.19;100251.00;4454142;32;34131;-86
2022/05/06 04:14:09;;;;;;;8.77;5.85;;;;;;;17.59;53.51;100247.81;4442142;32;34088;-84
2022/05/06 04:16:58;;;;;;;9.93;6.32;;;;;;;17.82;53.12;100245.06;4454622;32;34122;-84
2022/05/06 04:25:50;;;;;;;11.27;6.07;;;;;;;17.77;53.47;100267.16;4454158;32;33353;-84
2022/05/06 04:28:44;;;;;;;12.55;6.72;;;;;;;17.71;53.97;100265.34;4454281;32;34693;-84
2022/05/06 04:31:53;;;;;;;9.57;6.47;;;;;;;17.92;53.73;100270.31;4431674;32;33928;-84
2022/05/06 04:34:45;;;;;;;9.95;6.00;;;;;;;17.93;53.67;100276.69;4429512;32;32515;-83
2022/05/06 04:37:34;;;;;;;9.32;6.72;;;;;;;17.72;56.28;100270.66;4453947;32;33451;-83
2022/05/06 04:40:20;;;;;;;11.18;6.68;;;;;;;17.83;55.53;100277.31;4441786;32;34279;-84
2022/05/06 04:43:12;;;;;;;9.82;6.05;;;;;;;17.68;56.44;100275.00;4441393;32;35212;-82
2022/05/06 04:46:01;;;;;;;8.63;6.15;;;;;;;17.97;55.94;100284.31;4454262;32;34064;-81
2022/05/06 04:48:47;;;;;;;9.63;6.50;;;;;;;18.16;55.52;100284.16;4453958;32;33725;-80
2022/05/06 04:51:34;;;;;;;9.18;6.87;;;;;;;17.98;56.21;100283.22;4453816;32;33838;-81
2022/05/06 04:54:25;;;;;;;8.43;6.15;;;;;;;18.11;55.70;100284.91;4441320;32;35391;-80
2022/05/06 04:57:17;;;;;;;10.20;6.85;;;;;;;18.22;54.75;100295.13;4429649;32;32443;-85
2022/05/06 05:00:08;;;;;;;10.40;6.70;;;;;;;18.43;54.13;100297.25;4441884;32;33488;-85
2022/05/06 05:03:00;;;;;;;9.07;6.35;;;;;;;18.55;53.06;100301.94;4442376;32;34535;-84
2022/05/06 05:05:48;;;;;;;13.60;6.87;;;;;;;18.30;54.10;100313.34;4441664;32;34218;-84
2022/05/06 05:08:40;;;;;;;12.13;7.37;;;;;;;18.55;53.03;100302.78;4440792;32;32543;-84
2022/05/06 05:11:28;;;;;;;10.95;7.60;;;;;;;17.98;53.85;100302.66;4453769;32;33217;-85
2022/05/06 05:14:22;;;;;;;12.90;7.70;;;;;;;18.41;53.22;100299.44;4441993;32;34830;-84
2022/05/06 05:17:12;;;;;;;10.45;6.87;;;;;;;18.40;53.44;100292.19;4451847;32;35127;-85
2022/05/06 05:20:03;;;;;;;12.02;7.75;;;;;;;18.33;53.85;100287.84;4440088;32;33442;-85
2022/05/06 05:22:57;;;;;;;15.48;8.20;;;;;;;18.36;53.33;100290.97;4452171;32;33485;-87
2022/05/06 05:25:47;;;;;;;9.52;6.95;;;;;;;18.43;53.27;100296.41;4453503;32;33646;-86
2022/05/06 05:28:38;;;;;;;10.93;7.20;;;;;;;18.28;53.70;100305.25;4439698;32;33775;-85
2022/05/06 05:31:30;;;;;;;10.40;6.87;;;;;;;18.17;53.97;100300.59;4453310;32;34014;-85
2022/05/06 05:34:19;;;;;;;11.95;6.12;;;;;;;18.43;53.40;100301.97;4452404;32;33451;-83
2022/05/06 05:37:08;;;;;;;10.82;6.78;;;;;;;18.33;54.21;100298.97;4439900;32;33282;-80
2022/05/06 05:39:53;;;;;;;9.50;6.70;;;;;;;18.35;56.34;100302.34;4451366;32;34361;-81
2022/05/06 05:42:42;;;;;;;10.27;6.82;;;;;;;18.52;55.00;100303.28;4440017;32;33640;-81
2022/05/06 05:48:36;;;;;;;11.88;6.75;;;;;;;18.57;53.56;100305.31;4442304;32;32453;-83
2022/05/06 05:51:23;;;;;;;8.48;6.03;;;;;;;18.65;52.99;100303.03;4442073;32;34316;-84
2022/05/06 05:54:11;;;;;;;11.20;7.30;;;;;;;18.65;53.09;100307.75;4440746;32;34262;-83
2022/05/06 05:57:11;;;;;;;13.45;7.87;;;;;;;18.69;52.61;100309.78;4453429;32;33355;-82
2022/05/06 06:00:01;;;;;;;11.27;6.68;;;;;;;18.74;52.85;100318.22;4453120;32;33660;-84
2022/05/06 06:02:56;;;;;;;12.50;7.30;;;;;;;18.65;52.63;100311.37;4453028;32;34572;-85
2022/05/06 06:05:50;;;;;;;12.40;6.90;;;;;;;18.65;52.69;100319.72;4452976;32;34633;-83
2022/05/06 06:08:38;;;;;;;12.45;7.62;;;;;;;18.58;53.46;100313.41;4452885;32;31856;-83
2022/05/06 06:11:29;;;;;;;10.27;7.20;;;;;;;18.80;52.52;100327.53;4453290;32;34517;-82
2022/05/06 06:14:21;;;;;;;9.90;7.50;;;;;;;18.57;52.98;100320.06;4428454;32;32970;-83
2022/05/06 06:17:12;;;;;;;12.90;7.70;;;;;;;18.47;53.28;100321.78;4453721;32;33874;-84
2022/05/06 06:20:06;;;;;;;12.13;7.15;;;;;;;18.46;53.31;100322.88;4441075;32;33345;-83
2022/05/06 06:22:55;;;;;;;9.30;7.78;;;;;;;18.45;53.23;100324.81;4441311;32;33806;-83
2022/05/06 06:25:49;;;;;;;11.60;7.93;;;;;;;18.20;53.60;100332.59;4429513;32;32882;-83
2022/05/06 06:28:43;;;;;;;11.18;7.57;;;;;;;18.42;53.37;100330.84;4453814;32;34976;-83
2022/05/06 06:31:31;;;;;;;12.20;8.18;;;;;;;18.50;53.23;100330.47;4441152;32;31883;-84
2022/05/06 06:34:21;;;;;;;12.07;8.02;;;;;;;18.40;53.97;100333.03;4455143;32;33495;-83
2022/05/06 06:37:06;;;;;;;11.85;8.23;;;;;;;18.54;53.57;100336.38;4430188;32;32712;-84
2022/05/06 06:39:50;;;;;;;10.77;8.10;;;;;;;18.72;53.15;100330.69;4442428;32;34744;-84
2022/05/06 06:42:42;;;;;;;12.05;7.55;;;;;;;18.72;53.06;100328.75;4442496;32;33581;-82
2022/05/06 06:45:35;;;;;;;11.82;7.35;;;;;;;18.64;53.57;100329.13;4443041;32;34648;-84
2022/05/06 06:48:28;;;;;;;12.95;7.85;;;;;;;18.81;52.97;100326.44;4454384;32;34383;-83
2022/05/06 06:51:25;;;;;;;11.10;8.02;;;;;;;18.66;53.88;100331.69;4443644;32;34407;-83
2022/05/06 06:54:28;;;;;;;10.55;7.97;;;;;;;19.07;52.18;100330.53;4443035;32;32837;-83
2022/05/06 06:57:12;;;;;;;10.60;7.32;;;;;;;19.05;52.25;100324.38;4442536;32;36042;-83
2022/05/06 07:00:03;;;;;;;13.15;8.82;;;;;;;18.94;52.73;100326.09;4441708;32;33872;-84
2022/05/06 07:03:03;;;;;;;15.00;8.38;;;;;;;18.86;53.07;100320.09;4443647;32;34515;-84
2022/05/06 07:12:06;;;;;;;13.93;8.73;;;;;;;19.04;52.92;100317.12;4443520;32;32869;-85
2022/05/06 07:14:55;;;;;;;12.82;8.70;;;;;;;19.09;52.79;100318.06;4429822;32;33585;-83
2022/05/06 07:17:45;;;;;;;12.63;8.43;;;;;;;19.25;52.29;100321.13;4454389;32;32281;-82
2022/05/06 07:20:38;;;;;;;13.95;8.57;;;;;;;18.76;53.33;100320.75;4442689;32;34432;-84
2022/05/06 07:23:23;;;;;;;17.50;8.93;;;;;;;19.17;52.84;100327.94;4442604;32;34331;-83
2022/05/06 07:26:12;;;;;;;13.27;8.10;;;;;;;19.29;52.73;100327.88;4429923;32;32550;-84
2022/05/06 07:28:58;;;;;;;12.63;8.48;;;;;;;18.97;52.94;100328.41;4454463;32;34007;-83
2022/05/06 07:31:49;;;;;;;15.48;8.93;;;;;;;19.32;53.19;100319.03;4442514;32;32714;-83
2022/05/06 07:34:36;;;;;;;12.13;8.95;;;;;;;19.37;52.55;100328.31;4454580;32;34415;-84
2022/05/06 07:37:32;;;;;;;13.62;8.60;;;;;;;19.69;51.35;100324.97;4455347;32;34222;-83
2022/05/06 07:40:23;;;;;;;14.02;9.10;;;;;;;19.90;51.07;100323.38;4443206;32;33336;-83
2022/05/06 07:43:29;;;;;;;13.90;8.77;;;;;;;19.73;51.30;100323.38;4443776;32;33750;-83
2022/05/06 07:46:22;;;;;;;13.52;8.80;;;;;;;19.76;50.78;100330.38;4429922;32;33004;-83
2022/05/06 07:49:14;;;;;;;15.20;8.82;;;;;;;19.51;51.67;100333.53;4441331;32;32529;-84
2022/05/06 07:52:05;;;;;;;13.70;8.93;;;;;;;19.39;52.01;100336.41;4442289;32;32250;-84
2022/05/06 07:54:56;;;;;;;13.45;9.23;;;;;;;19.62;51.31;100339.06;4454236;32;33781;-82
2022/05/06 07:57:48;;;;;;;11.52;8.80;;;;;;;19.80;51.08;100328.78;4429776;32;33998;-83
2022/05/06 08:00:39;;;;;;;12.77;8.32;;;;;;;20.01;50.86;100328.00;4448026;32;33868;-83
2022/05/06 08:06:31;;;;;;;13.50;8.45;;;;;;;19.88;51.35;100318.03;4443315;32;33212;-82
2022/05/06 08:09:28;;;;;;;12.13;8.13;;;;;;;20.20;50.50;100322.94;4442250;32;33015;-83
2022/05/06 08:12:26;;;;;;;12.20;8.30;;;;;;;20.29;50.00;100327.00;4454148;32;34065;-84
2022/05/06 08:15:20;;;;;;;13.77;8.60;;;;;;;20.32;50.27;100329.25;4442275;32;31915;-83
2022/05/06 08:18:08;;;;;;;;;;;;;;;20.39;49.86;100325.22;4455084;32;33818;-82
2022/05/06 08:21:02;;;;;;;14.85;8.50;;;;;;;20.41;49.60;100330.53;4453709;32;33146;-83
2022/05/06 08:23:56;;;;;;;14.23;9.07;;;;;;;20.19;50.00;100321.25;4442541;32;33904;-83
2022/05/06 08:26:54;;;;;;;14.38;8.43;;;;;;;20.36;49.50;100316.50;4442731;32;32370;-83
2022/05/06 08:29:40;;;;;;;10.60;8.32;;;;;;;20.35;49.92;100328.75;4442653;32;33868;-83
2022/05/06 08:32:27;;;;;;;11.43;8.20;;;;;;;20.69;49.56;100322.00;4470480;32;34595;-83
2022/05/06 08:35:15;;;;;;;14.32;8.63;;;;;;;20.79;48.70;100324.06;4456694;32;33869;-83
2022/05/06 08:38:00;;;;;;;11.93;8.20;;;;;;;20.64;48.87;100321.94;4457018;32;33703;-83
2022/05/06 08:40:48;;;;;;;11.10;8.70;;;;;;;20.66;49.95;100328.09;4457394;32;34030;-83
2022/05/06 08:43:37;;;;;;;13.38;8.00;;;;;;;20.86;48.73;100324.69;4443326;32;35170;-84
2022/05/06 08:52:47;;;;;;;13.40;8.27;;;;;;;20.88;48.83;100333.62;4445572;32;32202;-83
2022/05/06 08:55:41;;;;;;;13.20;7.85;;;;;;;21.19;48.70;100322.81;4455701;32;32987;-83
2022/05/06 08:58:35;;;;;;;13.00;7.72;;;;;;;21.15;48.72;100327.25;4444423;32;32369;-83
2022/05/06 09:01:27;;;;;;;12.07;7.80;;;;;;;21.21;48.89;100324.28;4457812;32;33569;-84
2022/05/06 09:04:13;;;;;;;11.15;7.90;;;;;;;21.42;47.11;100325.31;4444008;32;33343;-82
2022/05/06 09:07:26;;;;;;;13.15;7.32;;;;;;;21.54;47.17;100325.97;4457260;32;34986;-82
2022/05/06 09:10:25;;;;;;;11.63;7.60;;;;;;;21.47;46.32;100325.34;4458139;32;34596;-82
2022/05/06 09:13:12;;;;;;;9.18;6.68;;;;;;;21.73;45.55;100317.19;4445439;32;34154;-83
2022/05/06 09:19:31;;;;;;;11.75;6.80;;;;;;;21.98;45.14;100320.19;4470304;32;34436;-83
2022/05/06 09:22:28;;;;;;;11.32;6.68;;;;;;;22.31;43.29;100317.03;4444701;32;34606;-83
2022/05/06 09:25:37;;;;;;;10.18;6.75;;;;;;;22.18;44.26;100325.91;4445071;32;33550;-83
2022/05/06 09:28:52;;;;;;;11.60;6.40;;;;;;;22.39;44.64;100329.69;4452207;32;33850;-83
2022/05/06 09:31:56;;;;;;;10.88;6.53;;;;;;;22.41;44.43;100333.03;4446368;32;35192;-83
2022/05/06 09:34:44;;;;;;;11.15;6.80;;;;;;;22.53;44.30;100328.06;4455735;32;34691;-84
2022/05/06 09:37:48;;;;;;;11.43;6.25;;;;;;;22.32;44.92;100326.28;4457782;32;33711;-82
2022/05/06 09:40:40;;;;;;;11.02;7.45;;;;;;;22.35;44.35;100325.75;4443610;32;34407;-84
2022/05/06 09:43:36;;;;;;;10.25;5.95;;;;;;;22.68;43.97;100314.16;4443102;32;33072;-82
2022/05/06 09:46:34;;;;;;;14.48;5.62;;;;;;;22.62;43.38;100320.00;4444473;32;32560;-81
2022/05/06 09:49:20;;;;;;;7.30;4.97;;;;;;;22.83;41.30;100318.97;4456230;32;34050;-84
2022/05/06 09:52:33;;;;;;;21.48;14.20;;;;;;;22.90;42.08;100321.53;4458802;32;34238;-83
2022/05/06 09:55:21;;;;;;;9.50;4.93;;;;;;;23.10;42.49;100310.38;4455080;32;32970;-77
2022/05/06 09:58:08;;;;;;;7.78;4.20;;;;;;;23.00;41.13;100327.16;4443219;32;32506;-78
2022/05/06 10:00:54;;;;;;;7.18;4.50;;;;;;;23.20;40.90;100327.22;4444402;32;33959;-77
2022/05/06 10:03:40;;;;;;;7.07;4.07;;;;;;;23.55;39.71;100317.19;4443128;32;32208;-78
2022/05/06 10:06:30;;;;;;;8.20;5.05;;;;;;;23.70;39.03;100308.78;4456375;32;35207;-77
2022/05/06 10:09:23;;;;;;;6.97;4.28;;;;;;;23.53;39.52;100314.66;4456654;32;33865;-77
2022/05/06 10:12:16;;;;;;;7.70;4.55;;;;;;;23.65;39.50;100312.44;4455912;32;33277;-77
2022/05/06 10:15:03;;;;;;;7.15;4.90;;;;;;;23.79;39.05;100309.91;4469894;32;34632;-78
2022/05/06 10:18:10;;;;;;;9.45;5.10;;;;;;;24.02;38.24;100308.47;4442695;32;33642;-77
2022/05/06 10:21:06;;;;;;;7.65;4.40;;;;;;;24.01;38.49;100306.81;4443382;32;34100;-77
2022/05/06 10:23:58;;;;;;;7.80;4.90;;;;;;;24.23;37.79;100301.69;4443559;32;31823;-77
2022/05/06 10:26:52;;;;;;;6.72;4.80;;;;;;;24.12;37.72;100296.38;4444415;32;34430;-78
2022/05/06 10:33:06;;;;;;;7.47;5.05;;;;;;;23.87;38.12;100298.13;4408191;32;33862;-76
2022/05/06 10:35:54;;;;;;;8.68;4.93;;;;;;;23.89;38.30;100295.03;4433900;32;34325;-77
2022/05/06 10:38:48;;;;;;;8.85;4.45;;;;;;;24.16;37.24;100297.50;4407610;32;32465;-77
2022/05/06 10:42:02;;;;;;;6.87;4.45;;;;;;;24.45;36.26;100286.50;4409618;32;34531;-76
2022/05/06 10:45:02;;;;;;;7.60;4.68;;;;;;;24.81;36.85;100287.16;4396611;32;33391;-80
2022/05/06 10:48:09;;;;;;;6.72;5.07;;;;;;;24.89;36.54;100286.56;4392190;32;33395;-80
2022/05/06 10:51:00;;;;;;;10.45;4.87;;;;;;;24.88;36.73;100282.06;4406039;32;33892;-82
2022/05/06 10:53:45;;;;;;;9.40;4.80;;;;;;;24.60;36.35;100273.25;4410422;32;34511;-81
2022/05/06 10:56:31;;;;;;;7.95;5.35;;;;;;;24.79;35.53;100281.00;4397436;32;32468;-81
2022/05/06 10:59:25;;;;;;;7.37;4.50;;;;;;;24.69;36.02;100279.12;4409828;32;34013;-80
2022/05/06 11:02:25;;;;;;;8.13;4.62;;;;;;;24.56;36.34;100283.38;4396414;32;33348;-82
2022/05/06 11:05:42;;;;;;;6.75;4.47;;;;;;;24.27;37.10;100279.53;4397602;32;34584;-80
2022/05/06 11:08:53;;;;;;;6.35;4.68;;;;;;;24.39;37.33;100273.63;4401619;32;34133;-81
2022/05/06 11:11:40;;;;;;;13.18;4.60;;;;;;;24.45;36.83;100270.50;4397093;32;32777;-81
2022/05/06 11:14:37;;;;;;;7.15;4.80;;;;;;;24.57;37.48;100268.22;4409603;32;33808;-82
2022/05/06 11:17:31;;;;;;;7.37;4.47;;;;;;;24.63;37.69;100272.69;4397649;32;32537;-81
2022/05/06 11:20:31;;;;;;;8.05;4.10;;;;;;;24.70;36.43;100274.34;4410994;32;34587;-79
2022/05/06 11:23:28;;;;;;;6.85;4.28;;;;;;;24.56;35.27;100263.72;4398994;32;31808;-81
2022/05/06 11:26:15;;;;;;;9.00;4.62;;;;;;;24.70;35.99;100266.72;4399428;32;33338;-81
2022/05/06 11:29:15;;;;;;;11.07;5.12;;;;;;;24.90;35.01;100269.44;4426667;32;33187;-81
2022/05/06 11:32:05;;;;;;;13.88;5.28;;;;;;;24.75;36.62;100260.25;4429063;32;32617;-81
2022/05/06 11:35:21;;;;;;;6.25;3.90;;;;;;;25.04;36.27;100250.00;4443116;32;33384;-82
2022/05/06 11:38:12;;;;;;;6.75;3.60;;;;;;;25.10;35.19;100248.84;4455382;32;33903;-80
2022/05/06 11:40:59;;;;;;;6.50;3.70;;;;;;;25.25;35.39;100251.53;4441661;32;32931;-82
2022/05/06 11:43:48;;;;;;;8.27;4.12;;;;;;;25.10;33.86;100248.00;4441135;32;33291;-82
2022/05/06 11:49:43;;;;;;;5.87;3.70;;;;;;;24.96;33.62;100242.19;4454347;32;33476;-81
2022/05/06 11:52:31;;;;;;;8.18;4.40;;;;;;;25.02;35.08;100246.66;4441527;32;33687;-82
2022/05/06 11:55:20;;;;;;;11.82;4.40;;;;;;;25.01;34.61;100244.97;4442510;32;33923;-82
2022/05/06 11:58:23;;;;;;;11.15;6.03;;;;;;;25.11;34.94;100250.53;4441964;32;31894;-80
2022/05/06 12:01:11;;;;;;;5.97;2.87;;;;;;;24.98;34.65;100247.50;4454181;32;34728;-80
2022/05/06 12:04:17;;;;;;;7.00;3.62;;;;;;;24.87;32.01;100238.28;4441507;32;33032;-81
2022/05/06 12:07:09;;;;;;;5.20;3.15;;;;;;;25.18;32.17;100239.78;4454110;32;34120;-82
2022/05/06 12:10:00;;;;;;;14.23;10.75;;;;;;;25.30;32.38;100239.44;4453415;32;34124;-81
2022/05/06 12:13:04;;;;;;;10.18;6.20;;;;;;;25.48;32.87;100241.50;4441798;32;33799;-82
2022/05/06 12:15:55;;;;;;;6.70;3.20;;;;;;;25.50;32.48;100241.19;4453829;32;35350;-82
2022/05/06 12:19:04;;;;;;;7.03;3.47;;;;;;;25.07;32.08;100237.34;4443499;32;33866;-82
2022/05/06 12:21:46;;;;;;;11.65;3.70;;;;;;;25.17;32.37;100237.28;4441701;32;31741;-82
2022/05/06 12:24:50;;;;;;;9.15;3.22;;;;;;;25.59;32.25;100223.41;4441748;32;33658;-81
2022/05/06 12:27:36;;;;;;;6.03;3.50;;;;;;;25.66;32.20;100227.88;4453936;32;35209;-81
2022/05/06 12:30:26;;;;;;;6.82;3.37;;;;;;;25.50;31.96;100232.78;4440937;32;33723;-82
2022/05/06 12:33:18;;;;;;;8.10;3.50;;;;;;;25.82;31.68;100229.41;4453738;32;33454;-81
2022/05/06 12:36:11;;;;;;;8.85;3.45;;;;;;;25.79;30.72;100230.84;4441120;32;32270;-81
2022/05/06 12:39:01;;;;;;;8.40;3.60;;;;;;;25.74;30.88;100214.03;4441774;32;34050;-82
2022/05/06 12:41:46;;;;;;;6.72;3.22;;;;;;;25.68;31.98;100220.84;4428904;32;33228;-81
2022/05/06 12:44:37;;;;;;;8.93;3.55;;;;;;;25.87;31.12;100221.75;4453985;32;33325;-81
2022/05/06 12:50:38;;;;;;;7.22;4.75;;;;;;;25.96;31.34;100210.69;4453838;32;34438;-82
2022/05/06 12:53:29;;;;;;;9.20;3.80;;;;;;;25.80;31.26;100204.41;4453610;32;34635;-82
2022/05/06 12:56:26;;;;;;;6.90;3.83;;;;;;;25.47;31.71;100205.25;4453672;32;33447;-81
2022/05/06 12:59:16;;;;;;;5.65;3.62;;;;;;;25.57;32.28;100206.00;4453736;32;34827;-81
2022/05/06 13:02:07;;;;;;;6.90;4.10;;;;;;;25.55;32.56;100201.81;4453720;32;34359;-81
2022/05/06 13:04:55;;;;;;;8.50;3.80;;;;;;;25.63;31.86;100209.59;4453622;32;32655;-81
2022/05/06 13:07:45;;;;;;;6.82;3.67;;;;;;;25.70;32.24;100200.84;4439249;32;33278;-80
2022/05/06 13:10:30;;;;;;;8.90;3.42;;;;;;;25.52;31.54;100202.41;4432780;32;32089;-81
2022/05/06 13:13:16;;;;;;;6.68;3.53;;;;;;;25.54;31.85;100197.31;4438042;32;34466;-81
2022/05/06 13:16:04;;;;;;;5.75;3.12;;;;;;;25.45;30.80;100199.09;4426216;32;33888;-80
2022/05/06 13:18:55;;;;;;;6.57;3.60;;;;;;;25.41;30.67;100195.19;4437998;32;32797;-81
2022/05/06 13:21:43;;;;;;;5.47;3.25;;;;;;;25.16;31.23;100197.09;4442650;32;34708;-81
2022/05/06 13:24:33;;;;;;;5.75;3.33;;;;;;;25.24;31.34;100209.69;4443764;32;34423;-80
2022/05/06 13:27:21;;;;;;;6.93;3.28;;;;;;;25.26;31.15;100201.81;4441038;32;34879;-81
2022/05/06 13:30:08;;;;;;;6.17;3.03;;;;;;;25.37;31.91;100197.75;4422383;32;33720;-81
2022/05/06 13:32:54;;;;;;;8.85;3.58;;;;;;;25.33;32.89;100188.25;4440441;32;32152;-81
2022/05/06 13:35:42;;;;;;;5.32;2.92;;;;;;;25.37;31.96;100189.31;4437455;32;32957;-81
2022/05/06 13:38:30;;;;;;;8.50;3.20;;;;;;;25.44;30.99;100187.00;4450380;32;33946;-82
2022/05/06 13:41:38;;;;;;;8.65;3.22;;;;;;;25.39;31.42;100189.87;4426214;32;34036;-80
2022/05/06 13:44:27;;;;;;;5.68;3.40;;;;;;;25.62;30.76;100179.81;4448925;32;34430;-81
2022/05/06 13:47:18;;;;;;;8.07;3.00;;;;;;;25.00;31.35;100184.31;4433681;32;32690;-81
2022/05/06 13:50:03;;;;;;;5.28;3.12;;;;;;;25.03;32.13;100189.34;4427791;32;34648;-82
2022/05/06 13:52:51;;;;;;;5.22;3.00;;;;;;;25.08;31.92;100182.84;4426214;32;32746;-81
2022/05/06 14:01:47;;;;;;;5.60;3.17;;;;;;;25.30;30.99;100177.62;4436912;32;32886;-81
2022/05/06 14:04:35;;;;;;;4.95;3.17;;;;;;;25.16;32.58;100180.25;4437501;32;34084;-80
2022/05/06 14:07:49;;;;;;;5.12;3.08;;;;;;;24.94;31.14;100171.41;4417883;32;32275;-81
2022/05/06 14:10:37;;;;;;;6.32;3.08;;;;;;;25.17;32.32;100178.28;4437543;32;34430;-81